sensor_id;sensor_type;location;lat;lon;timestamp;P1;durP1;ratioP1;P2;durP2;ratioP2
68212;SDS011;55035;47.792;8.724;2024-02-16T00:01:52;19.45;;;17.45;;
68212;SDS011;55035;47.792;8.724;2024-02-16T00:04:19;19.40;;;17.50;;
68212;SDS011;55035;47.792;8.724;2024-02-16T00:06:45;19.35;;;17.35;;
68212;SDS011;55035;47.792;8.724;2024-02-16T00:09:16;20.50;;;18.50;;
68212;SDS011;55035;47.792;8.724;2024-02-16T00:11:43;20.40;;;18.30;;
68212;SDS011;55035;47.792;8.724;2024-02-16T00:14:10;19.08;;;17.23;;
68212;SDS011;55035;47.792;8.724;2024-02-16T00:16:38;18.65;;;16.75;;
68212;SDS011;55035;47.792;8.724;2024-02-16T00:19:05;18.77;;;16.05;;
68212;SDS011;55035;47.792;8.724;2024-02-16T00:21:31;16.85;;;15.15;;
68212;SDS011;55035;47.792;8.724;2024-02-16T00:23:58;17.87;;;16.03;;
68212;SDS011;55035;47.792;8.724;2024-02-16T00:26:24;16.90;;;15.10;;
68212;SDS011;55035;47.792;8.724;2024-02-16T00:28:51;16.35;;;14.65;;
68212;SDS011;55035;47.792;8.724;2024-02-16T00:31:18;17.40;;;15.67;;
68212;SDS011;55035;47.792;8.724;2024-02-16T00:33:46;18.33;;;16.55;;
68212;SDS011;55035;47.792;8.724;2024-02-16T00:36:12;17.05;;;15.25;;
68212;SDS011;55035;47.792;8.724;2024-02-16T00:38:39;18.25;;;16.45;;
68212;SDS011;55035;47.792;8.724;2024-02-16T00:41:06;18.17;;;16.27;;
68212;SDS011;55035;47.792;8.724;2024-02-16T00:43:33;17.37;;;15.50;;
68212;SDS011;55035;47.792;8.724;2024-02-16T00:46:00;18.80;;;16.80;;
68212;SDS011;55035;47.792;8.724;2024-02-16T00:48:27;19.00;;;17.05;;
68212;SDS011;55035;47.792;8.724;2024-02-16T00:50:54;21.05;;;18.95;;
68212;SDS011;55035;47.792;8.724;2024-02-16T00:53:21;19.85;;;17.80;;
68212;SDS011;55035;47.792;8.724;2024-02-16T00:55:48;20.33;;;18.33;;
68212;SDS011;55035;47.792;8.724;2024-02-16T00:58:14;21.50;;;18.52;;
68212;SDS011;55035;47.792;8.724;2024-02-16T01:00:41;21.63;;;19.30;;
68212;SDS011;55035;47.792;8.724;2024-02-16T01:03:09;21.07;;;18.03;;
68212;SDS011;55035;47.792;8.724;2024-02-16T01:05:35;21.38;;;19.17;;
68212;SDS011;55035;47.792;8.724;2024-02-16T01:08:03;21.48;;;19.02;;
68212;SDS011;55035;47.792;8.724;2024-02-16T01:10:30;23.02;;;20.63;;
68212;SDS011;55035;47.792;8.724;2024-02-16T01:12:57;21.98;;;19.77;;
68212;SDS011;55035;47.792;8.724;2024-02-16T01:15:24;21.13;;;19.03;;
68212;SDS011;55035;47.792;8.724;2024-02-16T01:17:51;20.35;;;18.25;;
68212;SDS011;55035;47.792;8.724;2024-02-16T01:20:17;21.40;;;19.13;;
68212;SDS011;55035;47.792;8.724;2024-02-16T01:22:45;21.27;;;19.08;;
68212;SDS011;55035;47.792;8.724;2024-02-16T01:25:13;22.17;;;19.92;;
68212;SDS011;55035;47.792;8.724;2024-02-16T01:27:40;19.73;;;17.73;;
68212;SDS011;55035;47.792;8.724;2024-02-16T01:30:06;21.08;;;18.90;;
68212;SDS011;55035;47.792;8.724;2024-02-16T01:32:33;20.73;;;18.63;;
68212;SDS011;55035;47.792;8.724;2024-02-16T01:35:00;21.30;;;19.20;;
68212;SDS011;55035;47.792;8.724;2024-02-16T01:37:26;21.40;;;19.23;;
68212;SDS011;55035;47.792;8.724;2024-02-16T01:39:53;21.05;;;18.95;;
68212;SDS011;55035;47.792;8.724;2024-02-16T01:42:21;22.13;;;19.85;;
68212;SDS011;55035;47.792;8.724;2024-02-16T01:44:48;21.17;;;18.92;;
68212;SDS011;55035;47.792;8.724;2024-02-16T01:47:14;21.73;;;19.38;;
68212;SDS011;55035;47.792;8.724;2024-02-16T01:49:42;21.90;;;19.60;;
68212;SDS011;55035;47.792;8.724;2024-02-16T01:52:08;21.58;;;19.27;;
68212;SDS011;55035;47.792;8.724;2024-02-16T01:54:35;21.02;;;18.83;;
68212;SDS011;55035;47.792;8.724;2024-02-16T01:57:02;20.75;;;18.55;;
68212;SDS011;55035;47.792;8.724;2024-02-16T01:59:31;20.40;;;18.30;;
68212;SDS011;55035;47.792;8.724;2024-02-16T02:01:58;19.38;;;17.38;;
68212;SDS011;55035;47.792;8.724;2024-02-16T02:04:25;18.75;;;16.85;;
68212;SDS011;55035;47.792;8.724;2024-02-16T02:06:53;19.55;;;17.48;;
68212;SDS011;55035;47.792;8.724;2024-02-16T02:09:20;19.60;;;17.63;;
68212;SDS011;55035;47.792;8.724;2024-02-16T02:11:47;19.50;;;17.58;;
68212;SDS011;55035;47.792;8.724;2024-02-16T02:14:14;19.00;;;17.00;;
68212;SDS011;55035;47.792;8.724;2024-02-16T02:16:42;19.40;;;17.33;;
68212;SDS011;55035;47.792;8.724;2024-02-16T02:19:09;18.70;;;16.80;;
68212;SDS011;55035;47.792;8.724;2024-02-16T02:21:35;20.00;;;17.95;;
68212;SDS011;55035;47.792;8.724;2024-02-16T02:24:04;20.10;;;18.10;;
68212;SDS011;55035;47.792;8.724;2024-02-16T02:26:30;20.27;;;18.13;;
68212;SDS011;55035;47.792;8.724;2024-02-16T02:28:58;20.60;;;18.58;;
68212;SDS011;55035;47.792;8.724;2024-02-16T02:31:24;19.98;;;17.95;;
68212;SDS011;55035;47.792;8.724;2024-02-16T02:33:51;19.73;;;17.63;;
68212;SDS011;55035;47.792;8.724;2024-02-16T02:36:17;19.55;;;17.48;;
68212;SDS011;55035;47.792;8.724;2024-02-16T02:38:44;19.75;;;17.75;;
68212;SDS011;55035;47.792;8.724;2024-02-16T02:41:12;20.92;;;18.65;;
68212;SDS011;55035;47.792;8.724;2024-02-16T02:43:41;59.25;;;41.97;;
68212;SDS011;55035;47.792;8.724;2024-02-16T02:46:08;21.43;;;19.33;;
68212;SDS011;55035;47.792;8.724;2024-02-16T02:48:34;21.00;;;18.80;;
68212;SDS011;55035;47.792;8.724;2024-02-16T02:51:01;21.48;;;19.17;;
68212;SDS011;55035;47.792;8.724;2024-02-16T02:53:28;21.23;;;19.02;;
68212;SDS011;55035;47.792;8.724;2024-02-16T02:55:55;22.33;;;19.70;;
68212;SDS011;55035;47.792;8.724;2024-02-16T02:58:23;22.92;;;20.52;;
68212;SDS011;55035;47.792;8.724;2024-02-16T03:00:50;20.92;;;18.83;;
68212;SDS011;55035;47.792;8.724;2024-02-16T03:03:16;20.92;;;18.85;;
68212;SDS011;55035;47.792;8.724;2024-02-16T03:05:43;21.65;;;19.35;;
68212;SDS011;55035;47.792;8.724;2024-02-16T03:08:09;20.30;;;18.17;;
68212;SDS011;55035;47.792;8.724;2024-02-16T03:10:36;21.35;;;19.05;;
68212;SDS011;55035;47.792;8.724;2024-02-16T03:13:04;22.33;;;20.10;;
68212;SDS011;55035;47.792;8.724;2024-02-16T03:15:34;21.48;;;19.27;;
68212;SDS011;55035;47.792;8.724;2024-02-16T03:18:01;21.17;;;18.98;;
68212;SDS011;55035;47.792;8.724;2024-02-16T03:20:28;21.67;;;19.38;;
68212;SDS011;55035;47.792;8.724;2024-02-16T03:22:55;21.50;;;19.33;;
68212;SDS011;55035;47.792;8.724;2024-02-16T03:25:22;22.60;;;20.30;;
68212;SDS011;55035;47.792;8.724;2024-02-16T03:27:49;21.90;;;19.85;;
68212;SDS011;55035;47.792;8.724;2024-02-16T03:30:16;22.07;;;19.87;;
68212;SDS011;55035;47.792;8.724;2024-02-16T03:32:44;22.50;;;20.20;;
68212;SDS011;55035;47.792;8.724;2024-02-16T03:35:13;23.50;;;21.20;;
68212;SDS011;55035;47.792;8.724;2024-02-16T03:37:40;26.10;;;22.02;;
68212;SDS011;55035;47.792;8.724;2024-02-16T03:40:08;22.37;;;19.97;;
68212;SDS011;55035;47.792;8.724;2024-02-16T03:42:35;24.52;;;22.02;;
68212;SDS011;55035;47.792;8.724;2024-02-16T03:45:01;21.50;;;19.30;;
68212;SDS011;55035;47.792;8.724;2024-02-16T03:47:28;21.17;;;19.08;;
68212;SDS011;55035;47.792;8.724;2024-02-16T03:49:57;21.67;;;19.58;;
68212;SDS011;55035;47.792;8.724;2024-02-16T03:52:26;21.52;;;19.42;;
68212;SDS011;55035;47.792;8.724;2024-02-16T03:54:52;21.33;;;19.17;;
68212;SDS011;55035;47.792;8.724;2024-02-16T03:57:19;22.97;;;20.77;;
68212;SDS011;55035;47.792;8.724;2024-02-16T03:59:45;22.27;;;19.98;;
68212;SDS011;55035;47.792;8.724;2024-02-16T04:02:12;24.23;;;21.75;;
68212;SDS011;55035;47.792;8.724;2024-02-16T04:04:39;23.67;;;21.27;;
68212;SDS011;55035;47.792;8.724;2024-02-16T04:07:07;25.60;;;21.40;;
68212;SDS011;55035;47.792;8.724;2024-02-16T04:09:34;22.98;;;20.58;;
68212;SDS011;55035;47.792;8.724;2024-02-16T04:12:01;25.63;;;22.77;;
68212;SDS011;55035;47.792;8.724;2024-02-16T04:14:29;23.13;;;20.83;;
68212;SDS011;55035;47.792;8.724;2024-02-16T04:16:56;23.85;;;21.35;;
68212;SDS011;55035;47.792;8.724;2024-02-16T04:19:24;22.95;;;20.30;;
68212;SDS011;55035;47.792;8.724;2024-02-16T04:21:52;28.05;;;24.13;;
68212;SDS011;55035;47.792;8.724;2024-02-16T04:24:20;26.50;;;23.70;;
68212;SDS011;55035;47.792;8.724;2024-02-16T04:26:47;24.70;;;22.17;;
68212;SDS011;55035;47.792;8.724;2024-02-16T04:29:14;25.90;;;23.20;;
68212;SDS011;55035;47.792;8.724;2024-02-16T04:31:41;25.23;;;22.70;;
68212;SDS011;55035;47.792;8.724;2024-02-16T04:34:10;24.77;;;22.27;;
68212;SDS011;55035;47.792;8.724;2024-02-16T04:36:37;27.30;;;24.35;;
68212;SDS011;55035;47.792;8.724;2024-02-16T04:39:03;29.23;;;26.13;;
68212;SDS011;55035;47.792;8.724;2024-02-16T04:41:31;27.88;;;24.92;;
68212;SDS011;55035;47.792;8.724;2024-02-16T04:43:58;26.02;;;23.35;;
68212;SDS011;55035;47.792;8.724;2024-02-16T04:46:25;27.33;;;24.53;;
68212;SDS011;55035;47.792;8.724;2024-02-16T04:48:52;30.30;;;27.17;;
68212;SDS011;55035;47.792;8.724;2024-02-16T04:51:18;28.08;;;25.27;;
68212;SDS011;55035;47.792;8.724;2024-02-16T04:53:45;27.02;;;24.13;;
68212;SDS011;55035;47.792;8.724;2024-02-16T04:56:12;26.83;;;24.13;;
68212;SDS011;55035;47.792;8.724;2024-02-16T04:58:41;28.08;;;25.17;;
68212;SDS011;55035;47.792;8.724;2024-02-16T05:01:07;26.80;;;23.90;;
68212;SDS011;55035;47.792;8.724;2024-02-16T05:03:35;28.57;;;25.47;;
68212;SDS011;55035;47.792;8.724;2024-02-16T05:06:02;26.20;;;23.70;;
68212;SDS011;55035;47.792;8.724;2024-02-16T05:08:29;26.27;;;23.60;;
68212;SDS011;55035;47.792;8.724;2024-02-16T05:10:56;27.80;;;24.85;;
68212;SDS011;55035;47.792;8.724;2024-02-16T05:13:22;27.10;;;24.30;;
68212;SDS011;55035;47.792;8.724;2024-02-16T05:15:51;27.77;;;24.52;;
68212;SDS011;55035;47.792;8.724;2024-02-16T05:18:21;28.17;;;25.38;;
68212;SDS011;55035;47.792;8.724;2024-02-16T05:20:47;28.95;;;26.15;;
68212;SDS011;55035;47.792;8.724;2024-02-16T05:23:14;28.27;;;25.27;;
68212;SDS011;55035;47.792;8.724;2024-02-16T05:25:41;27.08;;;24.38;;
68212;SDS011;55035;47.792;8.724;2024-02-16T05:28:07;29.77;;;26.73;;
68212;SDS011;55035;47.792;8.724;2024-02-16T05:30:34;29.02;;;26.00;;
68212;SDS011;55035;47.792;8.724;2024-02-16T05:33:02;31.55;;;28.15;;
68212;SDS011;55035;47.792;8.724;2024-02-16T05:35:29;31.05;;;27.65;;
68212;SDS011;55035;47.792;8.724;2024-02-16T05:37:59;32.33;;;28.83;;
68212;SDS011;55035;47.792;8.724;2024-02-16T05:40:32;37.83;;;32.47;;
68212;SDS011;55035;47.792;8.724;2024-02-16T05:43:10;27.85;;;24.67;;
68212;SDS011;55035;47.792;8.724;2024-02-16T05:45:37;28.13;;;25.13;;
68212;SDS011;55035;47.792;8.724;2024-02-16T05:48:05;30.77;;;27.58;;
68212;SDS011;55035;47.792;8.724;2024-02-16T05:50:32;30.90;;;27.70;;
68212;SDS011;55035;47.792;8.724;2024-02-16T05:52:59;27.90;;;25.10;;
68212;SDS011;55035;47.792;8.724;2024-02-16T05:55:25;29.45;;;26.45;;
68212;SDS011;55035;47.792;8.724;2024-02-16T05:57:52;28.38;;;25.48;;
68212;SDS011;55035;47.792;8.724;2024-02-16T06:00:20;29.52;;;26.55;;
68212;SDS011;55035;47.792;8.724;2024-02-16T06:02:47;28.60;;;25.15;;
68212;SDS011;55035;47.792;8.724;2024-02-16T06:05:15;28.67;;;25.58;;
68212;SDS011;55035;47.792;8.724;2024-02-16T06:07:42;29.20;;;26.20;;
68212;SDS011;55035;47.792;8.724;2024-02-16T06:10:08;29.23;;;26.15;;
68212;SDS011;55035;47.792;8.724;2024-02-16T06:12:36;28.15;;;25.20;;
68212;SDS011;55035;47.792;8.724;2024-02-16T06:15:03;50.72;;;34.95;;
68212;SDS011;55035;47.792;8.724;2024-02-16T06:17:30;41.15;;;31.30;;
68212;SDS011;55035;47.792;8.724;2024-02-16T06:19:57;30.83;;;27.42;;
68212;SDS011;55035;47.792;8.724;2024-02-16T06:22:25;34.80;;;28.30;;
68212;SDS011;55035;47.792;8.724;2024-02-16T06:24:53;37.40;;;33.40;;
68212;SDS011;55035;47.792;8.724;2024-02-16T06:27:19;39.20;;;34.90;;
68212;SDS011;55035;47.792;8.724;2024-02-16T06:29:46;34.00;;;30.23;;
68212;SDS011;55035;47.792;8.724;2024-02-16T06:32:13;42.20;;;37.75;;
68212;SDS011;55035;47.792;8.724;2024-02-16T06:34:39;29.05;;;25.95;;
68212;SDS011;55035;47.792;8.724;2024-02-16T06:37:06;28.47;;;25.07;;
68212;SDS011;55035;47.792;8.724;2024-02-16T06:39:34;33.05;;;28.88;;
68212;SDS011;55035;47.792;8.724;2024-02-16T06:42:00;30.67;;;27.37;;
68212;SDS011;55035;47.792;8.724;2024-02-16T06:44:27;31.30;;;27.88;;
68212;SDS011;55035;47.792;8.724;2024-02-16T06:46:54;29.33;;;26.13;;
68212;SDS011;55035;47.792;8.724;2024-02-16T06:49:21;27.23;;;24.33;;
68212;SDS011;55035;47.792;8.724;2024-02-16T06:51:48;27.60;;;24.80;;
68212;SDS011;55035;47.792;8.724;2024-02-16T06:54:14;27.88;;;24.98;;
68212;SDS011;55035;47.792;8.724;2024-02-16T06:56:42;28.52;;;25.65;;
68212;SDS011;55035;47.792;8.724;2024-02-16T06:59:09;29.08;;;26.00;;
68212;SDS011;55035;47.792;8.724;2024-02-16T07:01:35;27.25;;;24.45;;
68212;SDS011;55035;47.792;8.724;2024-02-16T07:04:02;28.65;;;23.58;;
68212;SDS011;55035;47.792;8.724;2024-02-16T07:06:29;24.05;;;21.60;;
68212;SDS011;55035;47.792;8.724;2024-02-16T07:08:56;24.60;;;21.97;;
68212;SDS011;55035;47.792;8.724;2024-02-16T07:11:22;26.02;;;23.33;;
68212;SDS011;55035;47.792;8.724;2024-02-16T07:13:50;25.70;;;23.10;;
68212;SDS011;55035;47.792;8.724;2024-02-16T07:16:17;27.70;;;24.17;;
68212;SDS011;55035;47.792;8.724;2024-02-16T07:18:44;25.47;;;22.77;;
68212;SDS011;55035;47.792;8.724;2024-02-16T07:21:10;26.15;;;23.42;;
68212;SDS011;55035;47.792;8.724;2024-02-16T07:23:37;26.40;;;23.70;;
68212;SDS011;55035;47.792;8.724;2024-02-16T07:26:04;24.83;;;22.15;;
68212;SDS011;55035;47.792;8.724;2024-02-16T07:28:30;23.20;;;20.77;;
68212;SDS011;55035;47.792;8.724;2024-02-16T07:30:58;23.25;;;20.85;;
68212;SDS011;55035;47.792;8.724;2024-02-16T07:33:25;22.08;;;19.77;;
68212;SDS011;55035;47.792;8.724;2024-02-16T07:35:53;21.45;;;19.25;;
68212;SDS011;55035;47.792;8.724;2024-02-16T07:38:20;19.60;;;16.83;;
68212;SDS011;55035;47.792;8.724;2024-02-16T07:40:47;18.98;;;15.20;;
68212;SDS011;55035;47.792;8.724;2024-02-16T07:43:15;14.25;;;8.73;;
68212;SDS011;55035;47.792;8.724;2024-02-16T07:45:42;13.35;;;6.53;;
68212;SDS011;55035;47.792;8.724;2024-02-16T07:48:10;15.82;;;6.10;;
68212;SDS011;55035;47.792;8.724;2024-02-16T07:50:37;12.25;;;6.00;;
68212;SDS011;55035;47.792;8.724;2024-02-16T07:53:04;12.40;;;6.20;;
68212;SDS011;55035;47.792;8.724;2024-02-16T07:55:30;13.43;;;5.70;;
68212;SDS011;55035;47.792;8.724;2024-02-16T07:57:57;11.90;;;5.53;;
68212;SDS011;55035;47.792;8.724;2024-02-16T08:00:24;13.02;;;5.47;;
68212;SDS011;55035;47.792;8.724;2024-02-16T08:02:51;13.23;;;5.90;;
68212;SDS011;55035;47.792;8.724;2024-02-16T08:05:20;15.20;;;7.22;;
68212;SDS011;55035;47.792;8.724;2024-02-16T08:07:47;16.25;;;7.50;;
68212;SDS011;55035;47.792;8.724;2024-02-16T08:10:14;20.30;;;7.80;;
68212;SDS011;55035;47.792;8.724;2024-02-16T08:12:41;15.47;;;6.50;;
68212;SDS011;55035;47.792;8.724;2024-02-16T08:15:08;13.52;;;6.65;;
68212;SDS011;55035;47.792;8.724;2024-02-16T08:17:36;13.25;;;7.22;;
68212;SDS011;55035;47.792;8.724;2024-02-16T08:20:03;15.65;;;8.00;;
68212;SDS011;55035;47.792;8.724;2024-02-16T08:22:31;16.73;;;8.05;;
68212;SDS011;55035;47.792;8.724;2024-02-16T08:25:00;14.15;;;7.50;;
68212;SDS011;55035;47.792;8.724;2024-02-16T08:27:27;14.93;;;7.90;;
68212;SDS011;55035;47.792;8.724;2024-02-16T08:29:54;15.65;;;8.30;;
68212;SDS011;55035;47.792;8.724;2024-02-16T08:32:21;16.13;;;8.02;;
68212;SDS011;55035;47.792;8.724;2024-02-16T08:34:47;14.23;;;7.82;;
68212;SDS011;55035;47.792;8.724;2024-02-16T08:37:15;14.35;;;7.78;;
68212;SDS011;55035;47.792;8.724;2024-02-16T08:39:43;12.70;;;7.43;;
68212;SDS011;55035;47.792;8.724;2024-02-16T08:42:10;13.07;;;7.20;;
68212;SDS011;55035;47.792;8.724;2024-02-16T08:44:37;12.80;;;7.07;;
68212;SDS011;55035;47.792;8.724;2024-02-16T08:47:05;13.57;;;7.68;;
68212;SDS011;55035;47.792;8.724;2024-02-16T08:49:32;14.20;;;7.55;;
68212;SDS011;55035;47.792;8.724;2024-02-16T08:51:59;15.05;;;8.02;;
68212;SDS011;55035;47.792;8.724;2024-02-16T08:54:26;15.52;;;7.43;;
68212;SDS011;55035;47.792;8.724;2024-02-16T08:56:54;15.80;;;8.48;;
68212;SDS011;55035;47.792;8.724;2024-02-16T08:59:21;13.03;;;7.27;;
68212;SDS011;55035;47.792;8.724;2024-02-16T09:01:47;12.93;;;7.05;;
68212;SDS011;55035;47.792;8.724;2024-02-16T09:04:14;14.35;;;7.70;;
68212;SDS011;55035;47.792;8.724;2024-02-16T09:06:41;13.15;;;6.90;;
68212;SDS011;55035;47.792;8.724;2024-02-16T09:09:08;12.30;;;7.30;;
68212;SDS011;55035;47.792;8.724;2024-02-16T09:11:35;11.90;;;7.03;;
68212;SDS011;55035;47.792;8.724;2024-02-16T09:14:03;13.43;;;7.05;;
68212;SDS011;55035;47.792;8.724;2024-02-16T09:16:30;12.73;;;6.70;;
68212;SDS011;55035;47.792;8.724;2024-02-16T09:18:57;12.57;;;6.80;;
68212;SDS011;55035;47.792;8.724;2024-02-16T09:21:24;10.95;;;6.63;;
68212;SDS011;55035;47.792;8.724;2024-02-16T09:23:52;12.80;;;7.10;;
68212;SDS011;55035;47.792;8.724;2024-02-16T09:26:19;12.17;;;6.63;;
68212;SDS011;55035;47.792;8.724;2024-02-16T09:28:45;12.05;;;6.88;;
68212;SDS011;55035;47.792;8.724;2024-02-16T09:31:15;12.32;;;6.70;;
68212;SDS011;55035;47.792;8.724;2024-02-16T09:33:41;11.93;;;6.88;;
68212;SDS011;55035;47.792;8.724;2024-02-16T09:36:08;12.55;;;6.90;;
68212;SDS011;55035;47.792;8.724;2024-02-16T09:38:34;14.02;;;7.72;;
68212;SDS011;55035;47.792;8.724;2024-02-16T09:41:01;13.73;;;7.47;;
68212;SDS011;55035;47.792;8.724;2024-02-16T09:43:29;11.95;;;6.95;;
68212;SDS011;55035;47.792;8.724;2024-02-16T09:45:56;13.07;;;7.03;;
68212;SDS011;55035;47.792;8.724;2024-02-16T09:48:25;12.48;;;6.65;;
68212;SDS011;55035;47.792;8.724;2024-02-16T09:50:53;12.35;;;7.10;;
68212;SDS011;55035;47.792;8.724;2024-02-16T09:53:20;12.13;;;6.53;;
68212;SDS011;55035;47.792;8.724;2024-02-16T09:55:48;13.32;;;7.25;;
68212;SDS011;55035;47.792;8.724;2024-02-16T09:58:16;14.98;;;8.25;;
68212;SDS011;55035;47.792;8.724;2024-02-16T10:00:53;12.77;;;7.10;;
68212;SDS011;55035;47.792;8.724;2024-02-16T10:03:26;12.17;;;6.90;;
68212;SDS011;55035;47.792;8.724;2024-02-16T10:06:03;11.68;;;6.65;;
68212;SDS011;55035;47.792;8.724;2024-02-16T10:08:31;12.50;;;6.88;;
68212;SDS011;55035;47.792;8.724;2024-02-16T10:11:01;12.77;;;6.78;;
68212;SDS011;55035;47.792;8.724;2024-02-16T10:13:29;12.25;;;6.65;;
68212;SDS011;55035;47.792;8.724;2024-02-16T10:16:04;12.05;;;6.60;;
68212;SDS011;55035;47.792;8.724;2024-02-16T10:18:35;11.60;;;6.72;;
68212;SDS011;55035;47.792;8.724;2024-02-16T10:21:02;13.55;;;6.68;;
68212;SDS011;55035;47.792;8.724;2024-02-16T10:23:29;10.50;;;6.20;;
68212;SDS011;55035;47.792;8.724;2024-02-16T10:25:56;11.38;;;6.47;;
68212;SDS011;55035;47.792;8.724;2024-02-16T10:28:24;11.57;;;6.20;;
68212;SDS011;55035;47.792;8.724;2024-02-16T10:30:55;10.98;;;6.43;;
68212;SDS011;55035;47.792;8.724;2024-02-16T10:33:23;13.88;;;6.55;;
68212;SDS011;55035;47.792;8.724;2024-02-16T10:35:51;12.87;;;6.80;;
68212;SDS011;55035;47.792;8.724;2024-02-16T10:38:19;12.23;;;6.97;;
68212;SDS011;55035;47.792;8.724;2024-02-16T10:40:45;11.77;;;6.40;;
68212;SDS011;55035;47.792;8.724;2024-02-16T10:43:13;12.07;;;5.90;;
68212;SDS011;55035;47.792;8.724;2024-02-16T10:45:40;10.57;;;6.20;;
68212;SDS011;55035;47.792;8.724;2024-02-16T10:48:07;11.55;;;6.00;;
68212;SDS011;55035;47.792;8.724;2024-02-16T10:50:34;11.85;;;7.10;;
68212;SDS011;55035;47.792;8.724;2024-02-16T10:53:04;11.60;;;6.97;;
68212;SDS011;55035;47.792;8.724;2024-02-16T10:55:34;11.45;;;6.47;;
68212;SDS011;55035;47.792;8.724;2024-02-16T10:58:01;11.15;;;6.80;;
68212;SDS011;55035;47.792;8.724;2024-02-16T11:00:27;11.53;;;6.50;;
68212;SDS011;55035;47.792;8.724;2024-02-16T11:02:54;12.38;;;6.45;;
68212;SDS011;55035;47.792;8.724;2024-02-16T11:05:34;11.00;;;6.25;;
68212;SDS011;55035;47.792;8.724;2024-02-16T11:08:01;11.38;;;6.57;;
68212;SDS011;55035;47.792;8.724;2024-02-16T11:10:29;12.02;;;6.00;;
68212;SDS011;55035;47.792;8.724;2024-02-16T11:13:00;13.55;;;6.78;;
68212;SDS011;55035;47.792;8.724;2024-02-16T11:15:28;12.73;;;6.93;;
68212;SDS011;55035;47.792;8.724;2024-02-16T11:17:56;12.57;;;6.20;;
68212;SDS011;55035;47.792;8.724;2024-02-16T11:20:25;13.17;;;6.63;;
68212;SDS011;55035;47.792;8.724;2024-02-16T11:23:04;11.30;;;6.53;;
68212;SDS011;55035;47.792;8.724;2024-02-16T11:25:33;11.60;;;6.65;;
68212;SDS011;55035;47.792;8.724;2024-02-16T11:28:09;13.35;;;7.05;;
68212;SDS011;55035;47.792;8.724;2024-02-16T11:30:36;12.60;;;6.90;;
68212;SDS011;55035;47.792;8.724;2024-02-16T11:33:04;12.55;;;7.15;;
68212;SDS011;55035;47.792;8.724;2024-02-16T11:35:31;12.57;;;6.60;;
68212;SDS011;55035;47.792;8.724;2024-02-16T11:37:58;12.80;;;6.90;;
68212;SDS011;55035;47.792;8.724;2024-02-16T11:40:26;12.07;;;6.70;;
68212;SDS011;55035;47.792;8.724;2024-02-16T11:43:00;11.35;;;6.53;;
68212;SDS011;55035;47.792;8.724;2024-02-16T11:45:27;10.85;;;6.00;;
68212;SDS011;55035;47.792;8.724;2024-02-16T11:48:05;12.05;;;6.88;;
68212;SDS011;55035;47.792;8.724;2024-02-16T11:50:32;10.85;;;6.30;;
68212;SDS011;55035;47.792;8.724;2024-02-16T11:55:52;11.98;;;5.80;;
68212;SDS011;55035;47.792;8.724;2024-02-16T11:58:21;12.13;;;6.07;;
68212;SDS011;55035;47.792;8.724;2024-02-16T12:00:53;12.38;;;6.38;;
68212;SDS011;55035;47.792;8.724;2024-02-16T12:03:22;11.60;;;6.37;;
68212;SDS011;55035;47.792;8.724;2024-02-16T12:05:49;12.47;;;6.10;;
68212;SDS011;55035;47.792;8.724;2024-02-16T12:08:16;10.67;;;5.77;;
68212;SDS011;55035;47.792;8.724;2024-02-16T12:10:46;10.02;;;4.93;;
68212;SDS011;55035;47.792;8.724;2024-02-16T12:13:13;10.77;;;5.30;;
68212;SDS011;55035;47.792;8.724;2024-02-16T12:15:41;10.38;;;5.28;;
68212;SDS011;55035;47.792;8.724;2024-02-16T12:18:07;11.70;;;4.78;;
68212;SDS011;55035;47.792;8.724;2024-02-16T12:20:35;11.50;;;5.13;;
68212;SDS011;55035;47.792;8.724;2024-02-16T12:23:10;10.23;;;4.88;;
68212;SDS011;55035;47.792;8.724;2024-02-16T12:25:37;10.47;;;5.00;;
68212;SDS011;55035;47.792;8.724;2024-02-16T12:28:03;9.63;;;4.60;;
68212;SDS011;55035;47.792;8.724;2024-02-16T12:30:31;11.98;;;4.82;;
68212;SDS011;55035;47.792;8.724;2024-02-16T12:32:59;9.10;;;4.50;;
68212;SDS011;55035;47.792;8.724;2024-02-16T12:35:26;10.15;;;4.43;;
68212;SDS011;55035;47.792;8.724;2024-02-16T12:37:52;10.02;;;4.25;;
68212;SDS011;55035;47.792;8.724;2024-02-16T12:40:19;10.10;;;4.60;;
68212;SDS011;55035;47.792;8.724;2024-02-16T12:42:46;10.95;;;4.30;;
68212;SDS011;55035;47.792;8.724;2024-02-16T12:45:13;9.30;;;3.97;;
68212;SDS011;55035;47.792;8.724;2024-02-16T12:47:41;8.65;;;3.83;;
68212;SDS011;55035;47.792;8.724;2024-02-16T12:50:09;9.50;;;3.67;;
68212;SDS011;55035;47.792;8.724;2024-02-16T12:52:36;10.00;;;3.30;;
68212;SDS011;55035;47.792;8.724;2024-02-16T12:55:04;7.97;;;2.80;;
68212;SDS011;55035;47.792;8.724;2024-02-16T12:57:31;6.97;;;2.40;;
68212;SDS011;55035;47.792;8.724;2024-02-16T12:59:58;8.73;;;2.63;;
68212;SDS011;55035;47.792;8.724;2024-02-16T13:02:32;9.63;;;2.47;;
68212;SDS011;55035;47.792;8.724;2024-02-16T13:04:58;7.27;;;2.80;;
68212;SDS011;55035;47.792;8.724;2024-02-16T13:07:32;8.07;;;2.50;;
68212;SDS011;55035;47.792;8.724;2024-02-16T13:09:58;6.80;;;2.58;;
68212;SDS011;55035;47.792;8.724;2024-02-16T13:12:25;6.68;;;2.30;;
68212;SDS011;55035;47.792;8.724;2024-02-16T13:14:52;6.72;;;2.20;;
68212;SDS011;55035;47.792;8.724;2024-02-16T13:17:19;7.75;;;1.95;;
68212;SDS011;55035;47.792;8.724;2024-02-16T13:19:47;8.63;;;2.20;;
68212;SDS011;55035;47.792;8.724;2024-02-16T13:22:14;8.20;;;2.10;;
68212;SDS011;55035;47.792;8.724;2024-02-16T13:24:42;8.30;;;2.10;;
68212;SDS011;55035;47.792;8.724;2024-02-16T13:27:09;8.88;;;2.10;;
68212;SDS011;55035;47.792;8.724;2024-02-16T13:29:35;8.20;;;2.22;;
68212;SDS011;55035;47.792;8.724;2024-02-16T13:32:03;8.90;;;2.37;;
68212;SDS011;55035;47.792;8.724;2024-02-16T13:34:29;6.97;;;2.20;;
68212;SDS011;55035;47.792;8.724;2024-02-16T13:36:56;9.20;;;2.10;;
68212;SDS011;55035;47.792;8.724;2024-02-16T13:39:26;7.70;;;2.22;;
68212;SDS011;55035;47.792;8.724;2024-02-16T13:41:54;7.20;;;2.20;;
68212;SDS011;55035;47.792;8.724;2024-02-16T13:44:24;8.38;;;2.28;;
68212;SDS011;55035;47.792;8.724;2024-02-16T13:46:51;8.55;;;2.13;;
68212;SDS011;55035;47.792;8.724;2024-02-16T13:49:17;7.68;;;2.00;;
68212;SDS011;55035;47.792;8.724;2024-02-16T13:51:44;6.53;;;2.00;;
68212;SDS011;55035;47.792;8.724;2024-02-16T13:54:11;10.30;;;2.30;;
68212;SDS011;55035;47.792;8.724;2024-02-16T13:56:39;7.93;;;2.37;;
68212;SDS011;55035;47.792;8.724;2024-02-16T13:59:06;8.32;;;2.28;;
68212;SDS011;55035;47.792;8.724;2024-02-16T14:01:33;8.45;;;2.08;;
68212;SDS011;55035;47.792;8.724;2024-02-16T14:04:00;8.52;;;2.10;;
68212;SDS011;55035;47.792;8.724;2024-02-16T14:06:28;7.35;;;2.25;;
68212;SDS011;55035;47.792;8.724;2024-02-16T14:08:56;8.23;;;2.22;;
68212;SDS011;55035;47.792;8.724;2024-02-16T14:11:22;6.53;;;2.10;;
68212;SDS011;55035;47.792;8.724;2024-02-16T14:13:49;8.00;;;2.30;;
68212;SDS011;55035;47.792;8.724;2024-02-16T14:19:06;7.35;;;2.20;;
68212;SDS011;55035;47.792;8.724;2024-02-16T14:21:33;7.30;;;2.03;;
68212;SDS011;55035;47.792;8.724;2024-02-16T14:24:00;8.02;;;2.25;;
68212;SDS011;55035;47.792;8.724;2024-02-16T14:26:26;7.50;;;2.00;;
68212;SDS011;55035;47.792;8.724;2024-02-16T14:28:53;9.18;;;2.08;;
68212;SDS011;55035;47.792;8.724;2024-02-16T14:31:20;8.40;;;2.00;;
68212;SDS011;55035;47.792;8.724;2024-02-16T14:33:47;8.27;;;1.90;;
68212;SDS011;55035;47.792;8.724;2024-02-16T14:36:15;7.05;;;1.95;;